createdAt,value
2019-01-26T00:04:53.518Z,1.26
2019-01-26T00:10:02.558Z,1.68
2019-01-26T00:15:11.502Z,1.61
2019-01-26T00:20:20.446Z,1.50
2019-01-26T00:25:29.311Z,0.95
2019-01-26T00:30:38.266Z,1.05
2019-01-26T00:35:47.197Z,0.90
2019-01-26T00:40:56.623Z,1.16
2019-01-26T00:46:05.665Z,1.27
2019-01-26T00:51:17.259Z,0.93
2019-01-26T00:56:23.225Z,0.93
2019-01-26T01:01:32.184Z,1.27
2019-01-26T01:06:41.229Z,0.89
2019-01-26T01:11:50.172Z,3.87
2019-01-26T01:16:59.210Z,4.79
2019-01-26T01:22:08.082Z,13.56
2019-01-26T01:27:17.019Z,21.16
2019-01-26T01:32:26.341Z,9.98
2019-01-26T01:37:35.283Z,16.92
2019-01-26T01:42:44.263Z,11.19
2019-01-26T01:47:53.270Z,8.85
2019-01-26T01:53:02.214Z,9.82
2019-01-26T01:58:11.260Z,8.83
2019-01-26T02:03:20.137Z,6.18
2019-01-26T02:08:29.083Z,4.53
2019-01-26T02:13:38.080Z,2.38
2019-01-26T02:18:47.050Z,3.99
2019-01-26T02:23:56.476Z,1.49
2019-01-26T02:29:05.418Z,2.14
2019-01-26T02:34:14.282Z,2.32
2019-01-26T02:39:23.231Z,2.43
2019-01-26T02:44:32.167Z,1.99
2019-01-26T02:49:41.206Z,2.58
2019-01-26T02:54:50.139Z,1.80
2019-01-26T02:59:59.075Z,1.64
2019-01-26T03:05:08.017Z,1.57
2019-01-26T03:10:17.060Z,1.75
2019-01-26T03:15:26.506Z,1.37
2019-01-26T03:20:35.551Z,1.45
2019-01-26T03:25:44.491Z,1.29
2019-01-26T03:30:53.359Z,1.32
2019-01-26T03:36:02.334Z,0.86
2019-01-26T03:41:11.381Z,0.98
2019-01-26T03:46:20.281Z,0.82
2019-01-26T03:51:29.301Z,0.71
2019-01-26T03:56:38.281Z,0.85
2019-01-26T04:01:47.295Z,1.07
2019-01-26T04:06:56.582Z,1.14
2019-01-26T04:12:05.521Z,1.11
2019-01-26T04:17:21.624Z,1.04
2019-01-26T04:22:23.297Z,1.19
2019-01-26T04:27:32.312Z,1.16
2019-01-26T04:32:41.325Z,0.83
2019-01-26T04:37:50.295Z,1.31
2019-01-26T04:42:59.154Z,1.15
2019-01-26T04:48:08.113Z,0.90
2019-01-26T04:53:17.067Z,0.79
2019-01-26T04:58:26.483Z,0.71
2019-01-26T05:03:35.311Z,0.87
2019-01-26T05:08:44.248Z,1.42
2019-01-26T05:13:53.286Z,1.29
2019-01-26T05:19:02.229Z,0.95
2019-01-26T05:24:11.249Z,0.68
2019-01-26T05:29:20.216Z,0.48
2019-01-26T05:34:29.204Z,0.77
2019-01-26T05:39:38.151Z,0.51
2019-01-26T05:44:47.087Z,0.70
2019-01-26T05:49:56.397Z,0.94
2019-01-26T05:55:05.358Z,0.80
2019-01-26T06:00:14.326Z,0.88
2019-01-26T06:05:23.274Z,0.58
2019-01-26T06:10:32.191Z,0.59
2019-01-26T06:15:41.123Z,0.83
2019-01-26T06:20:50.412Z,0.72
2019-01-26T06:25:59.330Z,0.83
2019-01-26T06:31:08.342Z,0.83
2019-01-26T06:36:17.314Z,0.93
2019-01-26T06:41:26.627Z,0.63
2019-01-26T06:46:35.582Z,0.88
2019-01-26T06:51:44.544Z,1.13
2019-01-26T06:56:53.577Z,1.08
2019-01-26T07:02:02.498Z,0.95
2019-01-26T07:07:11.646Z,1.04
2019-01-26T07:12:20.871Z,0.91
2019-01-26T07:17:31.855Z,4.66
2019-01-26T07:22:30.793Z,1.23
2019-01-26T07:27:39.769Z,1.77
2019-01-26T07:32:48.672Z,1.11
2019-01-26T07:37:57.647Z,1.02
2019-01-26T07:43:06.653Z,7.46
2019-01-26T07:48:16.835Z,1.17
2019-01-26T07:53:24.156Z,0.98
2019-01-26T07:58:32.969Z,9.46
2019-01-26T08:03:41.943Z,4.43
2019-01-26T08:08:50.923Z,3.98
2019-01-26T08:14:00.306Z,2.55
2019-01-26T08:19:09.285Z,2.82
2019-01-26T08:24:18.231Z,2.15
2019-01-26T08:29:27.131Z,2.19
2019-01-26T08:34:36.072Z,2.19
2019-01-26T08:39:45.014Z,1.57
2019-01-26T08:44:53.986Z,1.86
2019-01-26T08:50:03.015Z,1.63
2019-01-26T08:55:18.076Z,1.77
2019-01-26T09:00:20.561Z,1.92
2019-01-26T09:05:29.555Z,2.15
2019-01-26T09:10:38.551Z,1.61
2019-01-26T09:15:47.435Z,1.43
2019-01-26T09:20:56.377Z,1.29
2019-01-26T09:26:05.378Z,1.49
2019-01-26T09:31:14.358Z,1.03
2019-01-26T09:36:23.302Z,1.33
2019-01-26T09:41:32.236Z,1.57
2019-01-26T09:46:41.498Z,1.43
2019-01-26T09:51:50.594Z,1.27
2019-01-26T09:56:59.644Z,0.99
2019-01-26T10:02:08.682Z,1.06
2019-01-26T10:07:17.564Z,1.12
2019-01-26T10:12:26.531Z,1.25
2019-01-26T10:17:35.510Z,1.04
2019-01-26T10:22:44.537Z,1.79
2019-01-26T10:27:53.437Z,1.53
2019-01-26T10:33:02.366Z,1.23
2019-01-26T10:38:11.682Z,0.96
2019-01-26T10:43:20.678Z,0.93
2019-01-26T10:48:29.782Z,0.94
2019-01-26T10:53:38.814Z,1.18
2019-01-26T10:58:47.798Z,1.10
2019-01-26T11:03:56.741Z,0.97
2019-01-26T11:09:05.754Z,1.00
2019-01-26T11:14:14.785Z,1.04
2019-01-26T11:19:23.746Z,0.95
2019-01-26T11:24:32.746Z,0.94
2019-01-26T11:29:41.716Z,1.05
2019-01-26T11:34:50.762Z,1.03
2019-01-26T11:39:59.806Z,1.30
2019-01-26T11:45:09.942Z,1.18
2019-01-26T11:50:17.281Z,1.14
2019-01-26T11:55:26.641Z,1.50
2019-01-26T12:00:34.748Z,1.27
2019-01-26T12:05:43.691Z,1.19
2019-01-26T12:10:52.635Z,1.16
2019-01-26T12:16:01.678Z,1.15
2019-01-26T12:21:09.287Z,1.16
2019-01-26T12:26:18.358Z,1.14
2019-01-26T12:31:27.378Z,0.82
2019-01-26T12:36:36.417Z,0.76
2019-01-26T12:41:45.290Z,0.85
2019-01-26T12:46:54.302Z,1.06
2019-01-26T12:52:03.243Z,0.87
2019-01-26T12:57:12.606Z,0.83
2019-01-26T13:02:21.510Z,0.91
2019-01-26T13:07:30.490Z,1.03
2019-01-26T13:12:39.458Z,1.03
2019-01-26T13:17:53.123Z,0.64
2019-01-26T13:22:52.003Z,0.87
2019-01-26T13:28:00.959Z,0.77
2019-01-26T13:33:09.966Z,0.94
2019-01-26T13:38:18.911Z,0.61
2019-01-26T13:43:27.949Z,0.67
2019-01-26T13:48:36.929Z,0.69
2019-01-26T13:53:46.810Z,0.99
2019-01-26T13:58:54.370Z,0.82
2019-01-26T14:04:03.347Z,0.69
2019-01-26T14:09:12.430Z,0.85
2019-01-26T14:14:21.442Z,0.75
2019-01-26T14:19:30.310Z,0.75
2019-01-26T14:24:39.278Z,0.67
2019-01-26T14:29:48.321Z,0.57
2019-01-26T14:34:57.790Z,0.60
2019-01-26T14:40:06.787Z,0.75
2019-01-26T14:45:15.864Z,0.71
2019-01-26T14:50:24.734Z,0.78
2019-01-26T14:55:33.746Z,0.82
2019-01-26T15:00:42.789Z,0.62
2019-01-26T15:05:51.836Z,0.68
2019-01-26T15:11:00.703Z,0.86
2019-01-26T15:16:09.719Z,2.07
2019-01-26T15:21:18.583Z,1.39
2019-01-26T15:26:27.811Z,1.10
2019-01-26T15:31:36.874Z,1.36
2019-01-26T15:36:45.790Z,1.60
2019-01-26T15:41:54.659Z,1.30
2019-01-26T15:47:03.682Z,1.39
2019-01-26T15:52:12.718Z,2.44
2019-01-26T15:57:21.658Z,1.99
2019-01-26T16:02:30.630Z,1.80
2019-01-26T16:07:39.654Z,2.91
2019-01-26T16:12:48.629Z,3.30
2019-01-26T16:17:57.668Z,4.28
2019-01-26T16:23:09.527Z,4.58
2019-01-26T16:28:15.049Z,6.18
2019-01-26T16:33:24.071Z,5.65
2019-01-26T16:38:33.091Z,5.71
2019-01-26T16:43:41.968Z,5.36
2019-01-26T16:48:50.911Z,5.69
2019-01-26T16:53:59.850Z,6.01
2019-01-26T16:59:08.802Z,5.03
2019-01-26T17:04:17.828Z,5.28
2019-01-26T17:09:26.803Z,4.19
2019-01-26T17:14:35.781Z,4.29
2019-01-26T17:19:46.628Z,4.76
2019-01-26T17:24:45.578Z,4.17
2019-01-26T17:29:54.518Z,4.53
2019-01-26T17:35:03.463Z,4.60
2019-01-26T17:40:13.223Z,4.61
2019-01-26T17:45:22.194Z,6.32
2019-01-26T17:50:31.120Z,4.84
2019-01-26T17:55:40.026Z,4.47
2019-01-26T18:00:48.922Z,5.02
2019-01-26T18:05:58.265Z,11.73
2019-01-26T18:11:07.222Z,23.72
2019-01-26T18:16:16.546Z,30.94
2019-01-26T18:21:25.572Z,14.56
2019-01-26T18:26:38.846Z,23.55
2019-01-26T18:31:34.741Z,13.75
2019-01-26T18:36:43.582Z,17.81
2019-01-26T18:41:52.447Z,16.89
2019-01-26T18:47:01.315Z,19.41
2019-01-26T18:52:10.263Z,23.79
2019-01-26T18:57:19.261Z,21.94
2019-01-26T19:02:28.295Z,9.18
2019-01-26T19:07:37.241Z,11.10
2019-01-26T19:12:46.187Z,6.77
2019-01-26T19:17:55.129Z,7.09
2019-01-26T19:23:04.103Z,4.33
2019-01-26T19:28:13.028Z,4.80
2019-01-26T19:33:21.894Z,4.86
2019-01-26T19:38:30.838Z,5.40
2019-01-26T19:43:39.832Z,3.82
2019-01-26T19:48:48.771Z,5.97
2019-01-26T19:53:58.523Z,8.62
2019-01-26T19:59:10.669Z,5.33
2019-01-26T20:04:09.899Z,4.40
2019-01-26T20:09:18.925Z,4.03
2019-01-26T20:14:28.466Z,4.11
2019-01-26T20:19:38.202Z,3.58
2019-01-26T20:24:50.077Z,4.29
2019-01-26T20:29:49.730Z,3.42
2019-01-26T20:34:59.410Z,4.43
2019-01-26T20:40:08.931Z,6.75
2019-01-26T20:45:20.095Z,7.28
2019-01-26T20:50:23.109Z,5.26
2019-01-26T20:55:22.998Z,4.41
2019-01-26T21:00:32.993Z,4.61
2019-01-26T21:05:32.862Z,3.92
2019-01-26T21:10:55.171Z,5.06
2019-01-26T21:15:49.389Z,3.96
2019-01-26T21:20:50.757Z,11.90
2019-01-26T21:25:49.548Z,18.70
2019-01-26T21:30:59.114Z,28.99
2019-01-26T21:36:08.634Z,21.13
2019-01-26T21:41:17.946Z,29.75
2019-01-26T21:46:26.964Z,24.30
2019-01-26T21:51:39.140Z,10.37
2019-01-26T21:56:45.755Z,8.71
2019-01-26T22:01:55.539Z,8.26
2019-01-26T22:07:05.008Z,10.75
2019-01-26T22:12:13.983Z,6.99
2019-01-26T22:17:22.989Z,5.09
2019-01-26T22:22:31.938Z,5.02
2019-01-26T22:27:39.786Z,4.38
2019-01-26T22:32:48.698Z,3.74
2019-01-26T22:37:57.905Z,4.46
2019-01-26T22:43:06.914Z,4.35
2019-01-26T22:48:15.959Z,3.40
2019-01-26T22:53:25.063Z,2.70
2019-01-26T22:58:34.047Z,3.08
2019-01-26T23:03:43.095Z,2.68
2019-01-26T23:08:52.245Z,2.18
2019-01-26T23:14:01.205Z,2.03
2019-01-26T23:19:10.326Z,2.80
2019-01-26T23:24:19.411Z,2.62
2019-01-26T23:29:28.342Z,2.17
2019-01-26T23:34:37.254Z,1.64
2019-01-26T23:39:47.255Z,1.65
2019-01-26T23:44:46.225Z,1.75
2019-01-26T23:49:55.106Z,1.70
2019-01-26T23:55:04.110Z,1.37
